createdAt,value
2022-12-24T00:00:20.681Z,38.73
2022-12-24T00:02:49.977Z,36.43
2022-12-24T00:05:19.053Z,38.10
2022-12-24T00:07:50.170Z,39.93
2022-12-24T00:10:19.811Z,39.63
2022-12-24T00:12:48.637Z,40.53
2022-12-24T00:15:17.259Z,38.50
2022-12-24T00:17:45.749Z,37.97
2022-12-24T00:20:14.599Z,39.40
2022-12-24T00:22:43.926Z,51.17
2022-12-24T00:25:13.858Z,40.77
2022-12-24T00:27:42.652Z,50.47
2022-12-24T00:30:12.278Z,43.30
2022-12-24T00:32:42.826Z,36.10
2022-12-24T00:35:11.633Z,40.00
2022-12-24T00:37:41.833Z,32.00
2022-12-24T00:40:12.234Z,44.33
2022-12-24T00:42:42.580Z,40.53
2022-12-24T00:45:12.261Z,43.90
2022-12-24T00:47:41.288Z,43.90
2022-12-24T00:50:11.509Z,36.40
2022-12-24T00:52:40.185Z,41.63
2022-12-24T00:55:09.038Z,45.37
2022-12-24T00:57:40.614Z,36.00
2022-12-24T01:00:11.899Z,35.27
2022-12-24T01:02:40.531Z,34.20
2022-12-24T01:05:10.862Z,41.67
2022-12-24T01:07:44.292Z,32.47
2022-12-24T01:10:14.330Z,36.57
2022-12-24T01:12:43.275Z,34.43
2022-12-24T01:15:14.522Z,37.27
2022-12-24T01:17:43.185Z,38.80
2022-12-24T01:20:18.147Z,43.47
2022-12-24T01:22:47.074Z,46.97
2022-12-24T01:25:15.678Z,36.47
2022-12-24T01:27:44.224Z,42.37
2022-12-24T01:30:16.318Z,42.77
2022-12-24T01:32:45.307Z,47.20
2022-12-24T01:35:13.918Z,40.53
2022-12-24T01:37:43.823Z,43.20
2022-12-24T01:40:38.533Z,46.27
2022-12-24T01:43:26.529Z,38.17
2022-12-24T01:45:57.969Z,47.03
2022-12-24T01:48:38.022Z,51.27
2022-12-24T01:51:16.431Z,51.73
2022-12-24T01:53:49.134Z,41.40
2022-12-24T01:56:18.683Z,46.00
2022-12-24T01:58:52.423Z,41.90
2022-12-24T02:01:22.383Z,48.60
2022-12-24T02:03:51.367Z,38.63
2022-12-24T02:06:22.048Z,36.70
2022-12-24T02:08:50.885Z,41.50
2022-12-24T02:11:21.157Z,41.97
2022-12-24T02:13:56.549Z,42.73
2022-12-24T02:16:36.222Z,36.67
2022-12-24T02:19:21.962Z,36.00
2022-12-24T02:21:56.376Z,42.60
2022-12-24T02:25:04.761Z,33.37
2022-12-24T02:27:45.053Z,38.83
2022-12-24T02:30:19.561Z,38.80
2022-12-24T02:33:00.537Z,37.70
2022-12-24T02:35:37.673Z,36.67
2022-12-24T02:38:13.248Z,40.30
2022-12-24T02:40:49.247Z,40.40
2022-12-24T02:43:23.321Z,29.37
2022-12-24T02:45:59.535Z,38.70
2022-12-24T02:48:30.307Z,43.00
2022-12-24T02:51:00.595Z,36.20
2022-12-24T02:53:29.091Z,40.23
2022-12-24T02:56:27.979Z,34.53
2022-12-24T02:59:16.190Z,31.83
2022-12-24T03:01:58.262Z,35.30
2022-12-24T03:04:42.767Z,36.77
2022-12-24T03:07:21.366Z,42.87
2022-12-24T03:10:02.304Z,42.40
2022-12-24T03:12:35.549Z,39.13
2022-12-24T03:15:06.677Z,43.87
2022-12-24T03:17:40.228Z,42.10
2022-12-24T03:20:12.638Z,48.43
2022-12-24T03:22:41.637Z,35.90
2022-12-24T03:25:10.881Z,35.13
2022-12-24T03:27:40.724Z,38.47
2022-12-24T03:30:14.191Z,44.53
2022-12-24T03:32:44.004Z,41.77
2022-12-24T03:35:13.340Z,47.07
2022-12-24T03:37:41.928Z,46.63
2022-12-24T03:40:11.281Z,48.67
2022-12-24T03:42:39.683Z,46.23
2022-12-24T03:45:10.120Z,45.17
2022-12-24T03:47:38.828Z,32.80
2022-12-24T03:50:10.526Z,44.17
2022-12-24T03:52:39.039Z,47.57
2022-12-24T03:55:07.915Z,44.73
2022-12-24T03:57:36.439Z,51.20
2022-12-24T04:00:06.474Z,46.73
2022-12-24T04:02:35.465Z,47.63
2022-12-24T04:05:04.362Z,46.30
2022-12-24T04:07:35.477Z,52.83
2022-12-24T04:10:04.119Z,55.03
2022-12-24T04:12:32.560Z,45.33
2022-12-24T04:15:01.208Z,43.43
2022-12-24T04:17:29.623Z,45.40
2022-12-24T04:19:57.996Z,40.70
2022-12-24T04:22:26.790Z,44.87
2022-12-24T04:24:56.960Z,45.07
2022-12-24T04:27:30.163Z,42.73
2022-12-24T04:29:59.291Z,42.80
2022-12-24T04:32:28.269Z,42.67
2022-12-24T04:34:56.627Z,48.83
2022-12-24T04:37:25.147Z,38.13
2022-12-24T04:39:56.628Z,41.20
2022-12-24T04:42:25.041Z,41.97
2022-12-24T04:44:53.479Z,35.97
2022-12-24T04:47:22.148Z,36.00
2022-12-24T04:49:51.085Z,44.07
2022-12-24T04:52:19.429Z,42.87
2022-12-24T04:54:48.148Z,40.57
2022-12-24T04:57:18.019Z,53.47
2022-12-24T04:59:46.381Z,41.77
2022-12-24T05:02:14.991Z,46.30
2022-12-24T05:04:43.684Z,42.27
2022-12-24T05:07:12.188Z,52.30
2022-12-24T05:09:40.596Z,39.30
2022-12-24T05:12:09.292Z,38.80
2022-12-24T05:14:40.315Z,37.67
2022-12-24T05:17:09.011Z,41.67
2022-12-24T05:19:37.479Z,47.30
2022-12-24T05:22:23.417Z,45.70
2022-12-24T05:25:09.454Z,50.03
2022-12-24T05:27:37.929Z,45.07
2022-12-24T05:30:09.421Z,40.00
2022-12-24T05:32:37.911Z,42.10
2022-12-24T05:35:07.076Z,36.37
2022-12-24T05:37:35.472Z,42.97
2022-12-24T05:40:03.961Z,35.10
2022-12-24T05:42:32.324Z,36.57
2022-12-24T05:45:01.204Z,42.30
2022-12-24T05:47:31.323Z,40.17
2022-12-24T05:50:00.260Z,38.57
2022-12-24T05:52:28.673Z,33.90
2022-12-24T05:54:57.130Z,30.40
2022-12-24T05:57:25.558Z,36.60
2022-12-24T05:59:53.998Z,34.70
2022-12-24T06:02:23.062Z,33.47
2022-12-24T06:04:52.901Z,34.00
2022-12-24T06:07:21.390Z,43.60
2022-12-24T06:09:49.752Z,33.23
2022-12-24T06:12:18.117Z,39.43
2022-12-24T06:14:46.492Z,38.50
2022-12-24T06:17:15.116Z,41.27
2022-12-24T06:19:43.703Z,26.20
2022-12-24T06:22:13.485Z,35.43
2022-12-24T06:24:41.877Z,33.63
2022-12-24T06:27:10.359Z,33.33
2022-12-24T06:29:38.780Z,35.23
2022-12-24T06:32:07.723Z,32.63
2022-12-24T06:34:36.214Z,32.27
2022-12-24T06:37:04.703Z,37.33
2022-12-24T06:39:34.554Z,35.47
2022-12-24T06:42:03.288Z,34.10
2022-12-24T06:44:31.675Z,28.70
2022-12-24T06:47:00.277Z,36.00
2022-12-24T06:49:28.762Z,40.20
2022-12-24T06:51:57.642Z,39.67
2022-12-24T06:54:26.155Z,32.70
2022-12-24T06:56:57.874Z,35.27
2022-12-24T06:59:26.802Z,32.90
2022-12-24T07:01:55.732Z,34.03
2022-12-24T07:04:24.354Z,39.30
2022-12-24T07:06:52.983Z,44.97
2022-12-24T07:09:21.407Z,30.50
2022-12-24T07:11:50.029Z,35.57
2022-12-24T07:14:19.976Z,42.93
2022-12-24T07:16:52.456Z,38.43
2022-12-24T07:19:24.180Z,32.73
2022-12-24T07:21:52.610Z,41.37
2022-12-24T07:24:21.716Z,43.67
2022-12-24T07:26:51.204Z,36.37
2022-12-24T07:29:21.172Z,47.13
2022-12-24T07:31:49.635Z,32.10
2022-12-24T07:34:18.569Z,45.10
2022-12-24T07:36:46.967Z,38.80
2022-12-24T07:39:15.412Z,47.33
2022-12-24T07:41:44.649Z,39.90
2022-12-24T07:44:13.833Z,45.03
2022-12-24T07:46:44.304Z,32.80
2022-12-24T07:49:13.003Z,38.30
2022-12-24T07:51:41.460Z,35.03
2022-12-24T07:54:10.226Z,37.67
2022-12-24T07:56:38.701Z,41.40
2022-12-24T07:59:07.155Z,38.77
2022-12-24T08:01:36.123Z,41.17
2022-12-24T08:04:06.392Z,42.37
2022-12-24T08:06:35.255Z,51.90
2022-12-24T08:09:04.331Z,42.77
2022-12-24T08:11:32.782Z,28.20
2022-12-24T08:14:01.262Z,47.20
2022-12-24T08:16:30.099Z,43.90
2022-12-24T08:18:58.619Z,36.53
2022-12-24T08:21:28.602Z,41.80
2022-12-24T08:23:57.382Z,30.87
2022-12-24T08:26:25.889Z,35.23
2022-12-24T08:28:54.603Z,39.07
2022-12-24T08:31:23.116Z,39.80
2022-12-24T08:33:51.718Z,35.97
2022-12-24T08:36:20.220Z,41.67
2022-12-24T08:38:50.423Z,49.33
2022-12-24T08:41:18.929Z,40.17
2022-12-24T08:43:47.968Z,36.90
2022-12-24T08:46:16.552Z,35.70
2022-12-24T08:48:45.133Z,32.70
2022-12-24T08:51:14.332Z,44.97
2022-12-24T08:53:42.892Z,31.53
2022-12-24T08:56:13.915Z,34.07
2022-12-24T08:58:42.772Z,40.37
2022-12-24T09:01:16.339Z,29.73
2022-12-24T09:03:47.801Z,38.77
2022-12-24T09:06:19.002Z,48.00
2022-12-24T09:08:47.602Z,32.97
2022-12-24T09:11:20.352Z,34.03
2022-12-24T09:13:48.991Z,40.03
2022-12-24T09:16:19.350Z,34.57
2022-12-24T09:18:47.917Z,35.63
2022-12-24T09:21:18.000Z,42.30
2022-12-24T09:23:49.217Z,44.57
2022-12-24T09:26:22.129Z,32.77
2022-12-24T09:28:51.927Z,35.97
2022-12-24T09:31:21.941Z,36.97
2022-12-24T09:33:51.950Z,35.23
2022-12-24T09:36:21.915Z,33.73
2022-12-24T09:38:50.878Z,38.00
2022-12-24T09:41:34.960Z,39.97
2022-12-24T09:44:12.108Z,35.07
2022-12-24T09:46:45.185Z,32.97
2022-12-24T09:49:18.234Z,32.40
2022-12-24T09:51:52.641Z,32.50
2022-12-24T09:54:25.673Z,30.23
2022-12-24T09:56:59.216Z,32.93
2022-12-24T09:59:33.770Z,32.50
2022-12-24T10:02:02.917Z,43.80
2022-12-24T10:04:34.017Z,40.13
2022-12-24T10:07:17.805Z,36.60
2022-12-24T10:09:55.571Z,37.40
2022-12-24T10:12:36.205Z,35.97
2022-12-24T10:15:16.196Z,36.83
2022-12-24T10:17:56.312Z,36.37
2022-12-24T10:20:37.533Z,32.13
2022-12-24T10:23:13.918Z,29.73
2022-12-24T10:25:49.777Z,41.70
2022-12-24T10:28:26.080Z,40.83
2022-12-24T10:31:01.631Z,38.80
2022-12-24T10:33:39.018Z,44.00
2022-12-24T10:36:12.517Z,33.40
2022-12-24T10:38:41.566Z,40.80
2022-12-24T10:41:10.643Z,33.13
2022-12-24T10:43:43.171Z,36.20
2022-12-24T10:46:20.998Z,32.07
2022-12-24T10:49:00.734Z,35.13
2022-12-24T10:51:37.688Z,29.80
2022-12-24T10:54:13.342Z,27.97
2022-12-24T10:56:44.636Z,33.70
2022-12-24T10:59:28.362Z,28.60
2022-12-24T11:01:59.770Z,39.97
2022-12-24T11:04:30.523Z,40.20
2022-12-24T11:07:04.842Z,28.87
2022-12-24T11:09:36.968Z,33.97
2022-12-24T11:12:15.848Z,34.20
2022-12-24T11:14:46.931Z,31.50
2022-12-24T11:17:23.337Z,28.70
2022-12-24T11:19:52.770Z,29.23
2022-12-24T11:22:25.817Z,25.80
2022-12-24T11:25:04.383Z,30.27
2022-12-24T11:27:40.602Z,28.37
2022-12-24T11:30:32.433Z,25.17
2022-12-24T11:33:23.217Z,28.30
2022-12-24T11:36:04.078Z,35.47
2022-12-24T11:38:35.387Z,29.17
2022-12-24T11:41:07.297Z,38.90
2022-12-24T11:43:53.930Z,35.40
2022-12-24T11:46:38.770Z,30.13
2022-12-24T11:49:19.066Z,26.63
2022-12-24T11:52:20.277Z,25.23
2022-12-24T11:55:22.712Z,36.33
2022-12-24T11:58:02.686Z,36.43
2022-12-24T12:00:31.690Z,31.70
2022-12-24T12:03:03.932Z,34.10
2022-12-24T12:05:36.301Z,29.90
2022-12-24T12:08:13.778Z,31.60
2022-12-24T12:10:45.030Z,29.30
2022-12-24T12:13:16.547Z,31.37
2022-12-24T12:15:51.369Z,26.23
2022-12-24T12:18:26.113Z,27.77
2022-12-24T12:21:02.307Z,32.13
2022-12-24T12:23:34.843Z,30.33
2022-12-24T12:26:12.706Z,38.73
2022-12-24T12:28:46.846Z,34.13
2022-12-24T12:31:23.246Z,35.33
2022-12-24T12:33:58.624Z,25.17
2022-12-24T12:36:33.103Z,33.83
2022-12-24T12:39:02.036Z,31.33
2022-12-24T12:41:47.350Z,31.17
2022-12-24T12:45:04.346Z,30.03
2022-12-24T12:47:51.803Z,33.13
2022-12-24T12:50:29.987Z,30.90
2022-12-24T12:53:20.146Z,34.87
2022-12-24T12:55:56.552Z,28.37
2022-12-24T12:58:32.499Z,28.93
2022-12-24T13:01:11.066Z,29.20
2022-12-24T13:04:10.263Z,34.60
2022-12-24T13:07:00.225Z,35.97
2022-12-24T13:09:47.554Z,36.13
2022-12-24T13:12:44.354Z,27.37
2022-12-24T13:15:40.481Z,38.63
2022-12-24T13:18:32.830Z,29.03
2022-12-24T13:21:01.534Z,26.97
2022-12-24T13:23:38.872Z,31.30
2022-12-24T13:26:15.087Z,46.37
2022-12-24T13:28:45.177Z,34.87
2022-12-24T13:31:31.189Z,31.03
2022-12-24T13:34:04.296Z,27.57
2022-12-24T13:37:23.373Z,27.47
2022-12-24T13:40:18.915Z,28.73
2022-12-24T13:42:53.663Z,30.57
2022-12-24T13:45:45.749Z,25.80
2022-12-24T13:48:31.284Z,27.57
2022-12-24T13:51:06.022Z,24.07
2022-12-24T13:53:41.175Z,23.40
2022-12-24T13:56:22.553Z,26.30
2022-12-24T13:59:10.774Z,23.87
2022-12-24T14:01:45.578Z,28.97
2022-12-24T14:04:30.171Z,23.83
2022-12-24T14:07:02.396Z,30.23
2022-12-24T14:09:34.473Z,25.93
2022-12-24T14:12:33.284Z,20.73
2022-12-24T14:15:42.703Z,21.13
2022-12-24T14:18:11.881Z,27.47
2022-12-24T14:20:41.215Z,25.40
2022-12-24T14:23:21.527Z,25.17
2022-12-24T14:25:54.402Z,26.63
2022-12-24T14:28:35.171Z,24.67
2022-12-24T14:31:08.173Z,23.67
2022-12-24T14:33:37.870Z,24.67
2022-12-24T14:36:11.339Z,25.03
2022-12-24T14:38:44.178Z,26.97
2022-12-24T14:41:29.894Z,24.47
2022-12-24T14:44:08.727Z,24.87
2022-12-24T14:46:47.895Z,28.03
2022-12-24T14:49:32.656Z,24.57
2022-12-24T14:52:30.726Z,20.77
2022-12-24T14:54:58.315Z,24.53
2022-12-24T14:57:29.373Z,26.80
2022-12-24T15:00:00.212Z,25.33
2022-12-24T15:02:41.858Z,25.03
2022-12-24T15:05:14.548Z,22.57
2022-12-24T15:07:47.929Z,19.80
2022-12-24T15:10:30.614Z,23.60
2022-12-24T15:13:04.265Z,29.13
2022-12-24T15:15:33.738Z,24.17
2022-12-24T15:18:14.375Z,25.37
2022-12-24T15:20:47.246Z,22.03
2022-12-24T15:23:21.263Z,22.57
2022-12-24T15:25:50.115Z,25.33
2022-12-24T15:28:19.979Z,25.00
2022-12-24T15:31:07.160Z,29.83
2022-12-24T15:33:39.126Z,27.00
2022-12-24T15:36:09.696Z,28.30
2022-12-24T15:38:41.136Z,24.17
2022-12-24T15:41:18.536Z,28.20
2022-12-24T15:43:52.656Z,23.77
2022-12-24T15:46:23.251Z,23.93
2022-12-24T15:48:57.806Z,23.83
2022-12-24T15:51:29.487Z,21.90
2022-12-24T15:54:02.385Z,27.23
2022-12-24T15:56:35.685Z,28.40
2022-12-24T15:59:32.445Z,29.53
2022-12-24T16:02:43.202Z,28.17
2022-12-24T16:05:39.142Z,29.97
2022-12-24T16:08:30.076Z,35.53
2022-12-24T16:11:19.636Z,31.30
2022-12-24T16:14:03.954Z,34.00
2022-12-24T16:16:44.537Z,39.80
2022-12-24T16:19:23.660Z,35.80
2022-12-24T16:21:56.433Z,30.30
2022-12-24T16:24:27.367Z,27.73
2022-12-24T16:26:56.785Z,25.87
2022-12-24T16:29:27.833Z,25.20
2022-12-24T16:31:59.705Z,31.37
2022-12-24T16:34:32.499Z,30.83
2022-12-24T16:37:03.891Z,33.83
2022-12-24T16:39:35.404Z,33.67
2022-12-24T16:42:22.661Z,30.87
2022-12-24T16:44:55.763Z,34.47
2022-12-24T16:47:29.014Z,33.70
2022-12-24T16:49:59.513Z,34.20
2022-12-24T16:52:34.028Z,38.97
2022-12-24T16:55:05.821Z,41.60
2022-12-24T16:57:35.592Z,41.90
2022-12-24T17:00:06.265Z,38.03
2022-12-24T17:02:36.774Z,33.60
2022-12-24T17:05:10.151Z,36.27
2022-12-24T17:07:43.726Z,32.80
2022-12-24T17:10:15.812Z,40.67
2022-12-24T17:12:47.237Z,42.33
2022-12-24T17:15:18.234Z,48.70
2022-12-24T17:17:47.428Z,39.93
2022-12-24T17:20:24.013Z,40.57
2022-12-24T17:22:57.072Z,42.60
2022-12-24T17:25:26.172Z,40.77
2022-12-24T17:27:55.732Z,37.13
2022-12-24T17:30:27.925Z,41.03
2022-12-24T17:32:57.304Z,37.73
2022-12-24T17:35:29.152Z,39.93
2022-12-24T17:37:59.283Z,36.13
2022-12-24T17:40:28.953Z,46.60
2022-12-24T17:42:57.577Z,46.70
2022-12-24T17:45:27.596Z,46.20
2022-12-24T17:47:56.468Z,47.70
2022-12-24T17:50:25.830Z,47.53
2022-12-24T17:52:54.992Z,46.40
2022-12-24T17:55:27.468Z,48.13
2022-12-24T17:57:56.405Z,46.57
2022-12-24T18:00:33.448Z,43.47
2022-12-24T18:03:02.675Z,44.60
2022-12-24T18:05:32.821Z,41.23
2022-12-24T18:08:02.749Z,38.40
2022-12-24T18:10:33.449Z,38.50
2022-12-24T18:13:02.933Z,36.67
2022-12-24T18:15:39.502Z,42.00
2022-12-24T18:18:25.613Z,40.67
2022-12-24T18:20:57.609Z,50.23
2022-12-24T18:23:27.619Z,46.77
2022-12-24T18:26:08.914Z,50.97
2022-12-24T18:28:40.014Z,55.83
2022-12-24T18:31:20.790Z,49.80
2022-12-24T18:33:54.446Z,48.43
2022-12-24T18:36:28.968Z,44.60
2022-12-24T18:39:02.237Z,42.73
2022-12-24T18:41:46.625Z,47.60
2022-12-24T18:44:24.517Z,46.90
2022-12-24T18:46:54.516Z,40.63
2022-12-24T18:49:23.363Z,42.47
2022-12-24T18:51:52.403Z,41.83
2022-12-24T18:54:21.096Z,37.87
2022-12-24T18:56:54.161Z,36.50
2022-12-24T18:59:23.558Z,40.17
2022-12-24T19:01:55.973Z,38.97
2022-12-24T19:04:24.986Z,39.47
2022-12-24T19:06:55.237Z,39.00
2022-12-24T19:09:29.801Z,38.57
2022-12-24T19:12:00.172Z,44.97
2022-12-24T19:14:31.141Z,113.43
2022-12-24T19:17:01.333Z,115.80
2022-12-24T19:19:31.934Z,105.80
2022-12-24T19:22:00.666Z,106.40
2022-12-24T19:24:31.697Z,98.00
2022-12-24T19:27:02.477Z,78.37
2022-12-24T19:29:31.410Z,75.13
2022-12-24T19:32:02.190Z,70.77
2022-12-24T19:34:31.544Z,58.00
2022-12-24T19:37:01.085Z,55.67
2022-12-24T19:39:32.759Z,51.13
2022-12-24T19:42:04.245Z,66.90
2022-12-24T19:44:33.042Z,58.50
2022-12-24T19:47:04.434Z,57.23
2022-12-24T19:49:33.244Z,52.17
2022-12-24T19:52:03.281Z,47.57
2022-12-24T19:54:35.276Z,44.87
2022-12-24T19:57:06.284Z,46.67
2022-12-24T19:59:37.829Z,48.63
2022-12-24T20:02:06.951Z,47.33
2022-12-24T20:04:43.997Z,44.53
2022-12-24T20:07:23.170Z,45.07
2022-12-24T20:09:58.613Z,43.43
2022-12-24T20:12:29.300Z,41.43
2022-12-24T20:14:58.848Z,41.17
2022-12-24T20:17:27.726Z,31.83
2022-12-24T20:20:01.124Z,37.33
2022-12-24T20:22:30.483Z,38.30
2022-12-24T20:24:59.491Z,37.63
2022-12-24T20:27:29.716Z,36.23
2022-12-24T20:29:59.573Z,36.23
2022-12-24T20:32:31.201Z,43.60
2022-12-24T20:35:01.344Z,45.50
2022-12-24T20:37:30.048Z,43.93
2022-12-24T20:39:59.694Z,39.50
2022-12-24T20:42:32.001Z,54.20
2022-12-24T20:45:01.559Z,47.60
2022-12-24T20:47:30.557Z,42.07
2022-12-24T20:50:05.976Z,43.30
2022-12-24T20:52:37.390Z,42.00
2022-12-24T20:55:09.142Z,39.33
2022-12-24T20:57:42.361Z,45.60
2022-12-24T21:00:14.703Z,38.53
2022-12-24T21:02:44.031Z,40.27
2022-12-24T21:05:17.475Z,44.47
2022-12-24T21:07:46.884Z,43.87
2022-12-24T21:10:19.794Z,45.70
2022-12-24T21:12:59.007Z,47.27
2022-12-24T21:15:30.559Z,46.13
2022-12-24T21:18:10.380Z,47.47
2022-12-24T21:20:43.199Z,44.93
2022-12-24T21:23:12.272Z,37.87
2022-12-24T21:25:44.956Z,42.40
2022-12-24T21:28:17.784Z,35.17
2022-12-24T21:30:48.010Z,35.90
2022-12-24T21:33:19.169Z,57.93
2022-12-24T21:35:53.109Z,48.33
2022-12-24T21:38:26.565Z,48.67
2022-12-24T21:41:02.646Z,45.80
2022-12-24T21:43:34.362Z,49.97
2022-12-24T21:46:09.280Z,45.20
2022-12-24T21:49:00.637Z,41.30
2022-12-24T21:51:33.223Z,52.57
2022-12-24T21:54:19.347Z,39.80
2022-12-24T21:57:07.728Z,39.23
2022-12-24T21:59:40.887Z,54.03
2022-12-24T22:02:15.055Z,54.50
2022-12-24T22:04:45.938Z,59.87
2022-12-24T22:07:43.465Z,52.33
2022-12-24T22:10:32.329Z,50.40
2022-12-24T22:13:12.066Z,60.90
2022-12-24T22:15:51.663Z,50.37
2022-12-24T22:18:35.298Z,46.93
2022-12-24T22:21:10.622Z,44.23
2022-12-24T22:23:46.182Z,45.67
2022-12-24T22:26:20.614Z,45.67
2022-12-24T22:28:49.369Z,40.13
2022-12-24T22:31:21.612Z,43.07
2022-12-24T22:33:51.838Z,55.20
2022-12-24T22:36:27.950Z,48.53
2022-12-24T22:39:01.617Z,39.57
2022-12-24T22:41:30.812Z,43.63
2022-12-24T22:44:00.406Z,38.73
2022-12-24T22:46:33.612Z,43.47
2022-12-24T22:49:03.549Z,40.67
2022-12-24T22:51:34.101Z,43.33
2022-12-24T22:54:06.825Z,43.30
2022-12-24T22:56:59.052Z,44.93
2022-12-24T22:59:31.155Z,40.93
2022-12-24T23:02:02.308Z,43.80
2022-12-24T23:04:40.502Z,44.33
2022-12-24T23:07:13.775Z,51.63
2022-12-24T23:09:48.374Z,44.53
2022-12-24T23:12:40.766Z,52.20
2022-12-24T23:15:11.985Z,58.57
2022-12-24T23:17:49.160Z,59.50
2022-12-24T23:20:21.524Z,50.10
2022-12-24T23:22:50.804Z,53.77
2022-12-24T23:25:25.963Z,54.47
2022-12-24T23:27:59.105Z,49.40
2022-12-24T23:30:29.857Z,45.60
2022-12-24T23:33:05.105Z,40.33
2022-12-24T23:35:39.435Z,40.10
2022-12-24T23:38:11.655Z,39.30
2022-12-24T23:40:43.865Z,36.43
2022-12-24T23:43:12.699Z,36.17
2022-12-24T23:45:41.672Z,37.47
2022-12-24T23:48:14.217Z,36.23
2022-12-24T23:50:49.103Z,39.37
2022-12-24T23:53:23.510Z,36.47
2022-12-24T23:55:54.412Z,33.37
2022-12-24T23:58:23.221Z,30.83
